sensor_id;sensor_type;location;lat;lon;timestamp;P1;durP1;ratioP1;P2;durP2;ratioP2
37529;SDS011;23374;52.758;6.872;2023-11-19T00:02:06;13.30;;;7.13;;
37529;SDS011;23374;52.758;6.872;2023-11-19T00:04:28;8.83;;;5.40;;
37529;SDS011;23374;52.758;6.872;2023-11-19T00:06:50;12.67;;;6.37;;
37529;SDS011;23374;52.758;6.872;2023-11-19T00:09:11;14.03;;;7.43;;
37529;SDS011;23374;52.758;6.872;2023-11-19T00:11:32;12.87;;;7.43;;
37529;SDS011;23374;52.758;6.872;2023-11-19T00:13:52;14.23;;;6.40;;
37529;SDS011;23374;52.758;6.872;2023-11-19T00:16:13;14.23;;;8.10;;
37529;SDS011;23374;52.758;6.872;2023-11-19T00:18:34;18.10;;;7.70;;
37529;SDS011;23374;52.758;6.872;2023-11-19T00:20:54;12.03;;;6.80;;
37529;SDS011;23374;52.758;6.872;2023-11-19T00:23:15;12.43;;;6.90;;
37529;SDS011;23374;52.758;6.872;2023-11-19T00:25:36;12.97;;;7.57;;
37529;SDS011;23374;52.758;6.872;2023-11-19T00:27:58;14.20;;;7.57;;
37529;SDS011;23374;52.758;6.872;2023-11-19T00:30:19;15.57;;;7.47;;
37529;SDS011;23374;52.758;6.872;2023-11-19T00:32:40;14.27;;;8.10;;
37529;SDS011;23374;52.758;6.872;2023-11-19T00:35:01;19.23;;;7.67;;
37529;SDS011;23374;52.758;6.872;2023-11-19T00:37:22;16.07;;;8.20;;
37529;SDS011;23374;52.758;6.872;2023-11-19T00:39:43;14.83;;;8.17;;
37529;SDS011;23374;52.758;6.872;2023-11-19T00:42:03;18.00;;;8.60;;
37529;SDS011;23374;52.758;6.872;2023-11-19T00:44:25;21.73;;;9.90;;
37529;SDS011;23374;52.758;6.872;2023-11-19T00:46:45;19.63;;;9.37;;
37529;SDS011;23374;52.758;6.872;2023-11-19T00:49:05;20.40;;;8.77;;
37529;SDS011;23374;52.758;6.872;2023-11-19T00:51:26;20.20;;;9.57;;
37529;SDS011;23374;52.758;6.872;2023-11-19T00:53:46;16.73;;;8.70;;
37529;SDS011;23374;52.758;6.872;2023-11-19T00:56:07;20.70;;;9.40;;
37529;SDS011;23374;52.758;6.872;2023-11-19T00:58:28;23.47;;;9.50;;
37529;SDS011;23374;52.758;6.872;2023-11-19T01:00:49;18.07;;;9.50;;
37529;SDS011;23374;52.758;6.872;2023-11-19T01:03:09;20.67;;;9.57;;
37529;SDS011;23374;52.758;6.872;2023-11-19T01:05:29;24.43;;;10.23;;
37529;SDS011;23374;52.758;6.872;2023-11-19T01:07:50;19.87;;;9.30;;
37529;SDS011;23374;52.758;6.872;2023-11-19T01:10:12;16.93;;;8.83;;
37529;SDS011;23374;52.758;6.872;2023-11-19T01:12:32;23.30;;;9.57;;
37529;SDS011;23374;52.758;6.872;2023-11-19T01:14:52;24.57;;;9.67;;
37529;SDS011;23374;52.758;6.872;2023-11-19T01:17:13;17.43;;;9.03;;
37529;SDS011;23374;52.758;6.872;2023-11-19T01:19:33;23.70;;;9.63;;
37529;SDS011;23374;52.758;6.872;2023-11-19T01:21:54;18.30;;;8.73;;
37529;SDS011;23374;52.758;6.872;2023-11-19T01:24:15;19.63;;;8.70;;
37529;SDS011;23374;52.758;6.872;2023-11-19T01:26:36;19.67;;;9.27;;
37529;SDS011;23374;52.758;6.872;2023-11-19T01:28:56;22.10;;;10.00;;
37529;SDS011;23374;52.758;6.872;2023-11-19T01:31:16;26.10;;;10.83;;
37529;SDS011;23374;52.758;6.872;2023-11-19T01:33:37;24.27;;;10.13;;
37529;SDS011;23374;52.758;6.872;2023-11-19T01:35:57;22.97;;;9.33;;
37529;SDS011;23374;52.758;6.872;2023-11-19T01:38:18;24.07;;;9.40;;
37529;SDS011;23374;52.758;6.872;2023-11-19T01:40:38;23.67;;;9.60;;
37529;SDS011;23374;52.758;6.872;2023-11-19T01:42:58;25.17;;;10.23;;
37529;SDS011;23374;52.758;6.872;2023-11-19T01:45:26;28.87;;;10.93;;
37529;SDS011;23374;52.758;6.872;2023-11-19T01:47:51;21.80;;;9.53;;
37529;SDS011;23374;52.758;6.872;2023-11-19T01:50:11;33.50;;;9.97;;
37529;SDS011;23374;52.758;6.872;2023-11-19T01:52:32;22.67;;;9.80;;
37529;SDS011;23374;52.758;6.872;2023-11-19T01:54:56;34.47;;;9.60;;
37529;SDS011;23374;52.758;6.872;2023-11-19T01:57:17;28.27;;;9.33;;
37529;SDS011;23374;52.758;6.872;2023-11-19T01:59:39;22.93;;;8.57;;
37529;SDS011;23374;52.758;6.872;2023-11-19T02:02:01;27.33;;;9.27;;
37529;SDS011;23374;52.758;6.872;2023-11-19T02:04:22;23.70;;;8.40;;
37529;SDS011;23374;52.758;6.872;2023-11-19T02:06:43;23.50;;;9.27;;
37529;SDS011;23374;52.758;6.872;2023-11-19T02:09:05;30.67;;;9.27;;
37529;SDS011;23374;52.758;6.872;2023-11-19T02:11:28;29.87;;;9.10;;
37529;SDS011;23374;52.758;6.872;2023-11-19T02:13:49;36.53;;;9.13;;
37529;SDS011;23374;52.758;6.872;2023-11-19T02:16:10;26.70;;;8.40;;
37529;SDS011;23374;52.758;6.872;2023-11-19T02:18:30;27.67;;;9.30;;
37529;SDS011;23374;52.758;6.872;2023-11-19T02:20:51;23.97;;;6.90;;
37529;SDS011;23374;52.758;6.872;2023-11-19T02:23:13;18.50;;;7.87;;
37529;SDS011;23374;52.758;6.872;2023-11-19T02:25:34;25.90;;;8.30;;
37529;SDS011;23374;52.758;6.872;2023-11-19T02:27:58;22.77;;;7.77;;
37529;SDS011;23374;52.758;6.872;2023-11-19T02:30:20;19.47;;;8.10;;
37529;SDS011;23374;52.758;6.872;2023-11-19T02:32:43;19.00;;;7.60;;
37529;SDS011;23374;52.758;6.872;2023-11-19T02:35:04;22.43;;;7.90;;
37529;SDS011;23374;52.758;6.872;2023-11-19T02:37:25;26.67;;;7.07;;
37529;SDS011;23374;52.758;6.872;2023-11-19T02:39:45;25.80;;;7.50;;
37529;SDS011;23374;52.758;6.872;2023-11-19T02:42:06;27.30;;;7.57;;
37529;SDS011;23374;52.758;6.872;2023-11-19T02:44:26;20.43;;;7.53;;
37529;SDS011;23374;52.758;6.872;2023-11-19T02:46:49;25.57;;;6.90;;
37529;SDS011;23374;52.758;6.872;2023-11-19T02:49:09;21.50;;;6.17;;
37529;SDS011;23374;52.758;6.872;2023-11-19T02:51:30;22.57;;;6.00;;
37529;SDS011;23374;52.758;6.872;2023-11-19T02:53:50;22.47;;;5.80;;
37529;SDS011;23374;52.758;6.872;2023-11-19T02:56:10;21.77;;;5.60;;
37529;SDS011;23374;52.758;6.872;2023-11-19T02:58:45;23.60;;;5.77;;
37529;SDS011;23374;52.758;6.872;2023-11-19T03:01:06;30.30;;;5.10;;
37529;SDS011;23374;52.758;6.872;2023-11-19T03:03:32;26.33;;;4.63;;
37529;SDS011;23374;52.758;6.872;2023-11-19T03:05:58;21.50;;;4.83;;
37529;SDS011;23374;52.758;6.872;2023-11-19T03:08:18;22.63;;;3.77;;
37529;SDS011;23374;52.758;6.872;2023-11-19T03:10:39;19.33;;;3.93;;
37529;SDS011;23374;52.758;6.872;2023-11-19T03:12:59;29.47;;;3.90;;
37529;SDS011;23374;52.758;6.872;2023-11-19T03:15:22;23.50;;;4.60;;
37529;SDS011;23374;52.758;6.872;2023-11-19T03:17:42;16.83;;;3.87;;
37529;SDS011;23374;52.758;6.872;2023-11-19T03:20:05;20.00;;;3.63;;
37529;SDS011;23374;52.758;6.872;2023-11-19T03:22:29;12.50;;;3.27;;
37529;SDS011;23374;52.758;6.872;2023-11-19T03:24:52;24.80;;;4.20;;
37529;SDS011;23374;52.758;6.872;2023-11-19T03:27:13;21.77;;;3.07;;
37529;SDS011;23374;52.758;6.872;2023-11-19T03:29:33;20.23;;;3.17;;
37529;SDS011;23374;52.758;6.872;2023-11-19T03:31:53;20.77;;;3.60;;
37529;SDS011;23374;52.758;6.872;2023-11-19T03:34:14;20.73;;;3.87;;
37529;SDS011;23374;52.758;6.872;2023-11-19T03:36:35;26.80;;;4.20;;
37529;SDS011;23374;52.758;6.872;2023-11-19T03:38:55;25.27;;;3.40;;
37529;SDS011;23374;52.758;6.872;2023-11-19T03:41:16;28.23;;;3.47;;
37529;SDS011;23374;52.758;6.872;2023-11-19T03:43:36;20.57;;;4.07;;
37529;SDS011;23374;52.758;6.872;2023-11-19T03:45:56;26.30;;;3.80;;
37529;SDS011;23374;52.758;6.872;2023-11-19T03:48:17;18.27;;;2.90;;
37529;SDS011;23374;52.758;6.872;2023-11-19T03:50:38;16.20;;;3.43;;
37529;SDS011;23374;52.758;6.872;2023-11-19T03:52:59;19.07;;;3.17;;
37529;SDS011;23374;52.758;6.872;2023-11-19T03:55:19;21.47;;;3.60;;
37529;SDS011;23374;52.758;6.872;2023-11-19T03:57:39;17.47;;;3.30;;
37529;SDS011;23374;52.758;6.872;2023-11-19T03:59:59;21.17;;;2.37;;
37529;SDS011;23374;52.758;6.872;2023-11-19T04:02:21;30.70;;;3.43;;
37529;SDS011;23374;52.758;6.872;2023-11-19T04:04:41;30.43;;;3.83;;
37529;SDS011;23374;52.758;6.872;2023-11-19T04:07:02;21.83;;;2.80;;
37529;SDS011;23374;52.758;6.872;2023-11-19T04:09:22;17.63;;;2.83;;
37529;SDS011;23374;52.758;6.872;2023-11-19T04:11:43;26.57;;;3.67;;
37529;SDS011;23374;52.758;6.872;2023-11-19T04:14:06;22.07;;;3.63;;
37529;SDS011;23374;52.758;6.872;2023-11-19T04:16:27;27.83;;;4.10;;
37529;SDS011;23374;52.758;6.872;2023-11-19T04:18:48;25.30;;;4.23;;
37529;SDS011;23374;52.758;6.872;2023-11-19T04:21:08;23.40;;;4.00;;
37529;SDS011;23374;52.758;6.872;2023-11-19T04:23:29;28.77;;;3.63;;
37529;SDS011;23374;52.758;6.872;2023-11-19T04:25:49;19.00;;;3.20;;
37529;SDS011;23374;52.758;6.872;2023-11-19T04:28:09;26.67;;;4.63;;
37529;SDS011;23374;52.758;6.872;2023-11-19T04:30:30;23.77;;;3.67;;
37529;SDS011;23374;52.758;6.872;2023-11-19T04:32:51;29.67;;;4.73;;
37529;SDS011;23374;52.758;6.872;2023-11-19T04:35:11;25.63;;;3.33;;
37529;SDS011;23374;52.758;6.872;2023-11-19T04:37:32;20.40;;;3.83;;
37529;SDS011;23374;52.758;6.872;2023-11-19T04:39:52;14.50;;;2.80;;
37529;SDS011;23374;52.758;6.872;2023-11-19T04:42:13;27.17;;;3.70;;
37529;SDS011;23374;52.758;6.872;2023-11-19T04:44:36;15.57;;;3.10;;
37529;SDS011;23374;52.758;6.872;2023-11-19T04:46:57;29.77;;;4.33;;
37529;SDS011;23374;52.758;6.872;2023-11-19T04:49:18;23.07;;;3.83;;
37529;SDS011;23374;52.758;6.872;2023-11-19T04:51:41;26.40;;;4.13;;
37529;SDS011;23374;52.758;6.872;2023-11-19T04:54:02;21.00;;;3.30;;
37529;SDS011;23374;52.758;6.872;2023-11-19T04:56:23;19.17;;;3.43;;
37529;SDS011;23374;52.758;6.872;2023-11-19T04:58:44;19.20;;;3.37;;
37529;SDS011;23374;52.758;6.872;2023-11-19T05:01:05;26.60;;;3.50;;
37529;SDS011;23374;52.758;6.872;2023-11-19T05:03:25;21.87;;;2.60;;
37529;SDS011;23374;52.758;6.872;2023-11-19T05:05:46;25.43;;;3.63;;
37529;SDS011;23374;52.758;6.872;2023-11-19T05:08:07;17.67;;;3.73;;
37529;SDS011;23374;52.758;6.872;2023-11-19T05:10:30;17.43;;;3.00;;
37529;SDS011;23374;52.758;6.872;2023-11-19T05:12:51;16.50;;;3.47;;
37529;SDS011;23374;52.758;6.872;2023-11-19T05:15:12;24.90;;;3.43;;
37529;SDS011;23374;52.758;6.872;2023-11-19T05:17:32;18.83;;;3.47;;
37529;SDS011;23374;52.758;6.872;2023-11-19T05:19:53;27.43;;;3.70;;
37529;SDS011;23374;52.758;6.872;2023-11-19T05:22:13;17.53;;;2.90;;
37529;SDS011;23374;52.758;6.872;2023-11-19T05:24:33;22.30;;;4.00;;
37529;SDS011;23374;52.758;6.872;2023-11-19T05:26:54;22.30;;;3.93;;
37529;SDS011;23374;52.758;6.872;2023-11-19T05:29:14;23.00;;;3.57;;
37529;SDS011;23374;52.758;6.872;2023-11-19T05:31:34;23.23;;;3.67;;
37529;SDS011;23374;52.758;6.872;2023-11-19T05:33:55;22.87;;;3.40;;
37529;SDS011;23374;52.758;6.872;2023-11-19T05:36:15;19.03;;;3.87;;
37529;SDS011;23374;52.758;6.872;2023-11-19T05:38:35;25.57;;;3.60;;
37529;SDS011;23374;52.758;6.872;2023-11-19T05:40:59;19.00;;;4.10;;
37529;SDS011;23374;52.758;6.872;2023-11-19T05:43:19;19.13;;;4.50;;
37529;SDS011;23374;52.758;6.872;2023-11-19T05:45:39;17.60;;;2.93;;
37529;SDS011;23374;52.758;6.872;2023-11-19T05:48:00;10.10;;;1.87;;
37529;SDS011;23374;52.758;6.872;2023-11-19T05:50:20;21.20;;;3.90;;
37529;SDS011;23374;52.758;6.872;2023-11-19T05:52:40;18.80;;;3.33;;
37529;SDS011;23374;52.758;6.872;2023-11-19T05:55:01;26.70;;;4.37;;
37529;SDS011;23374;52.758;6.872;2023-11-19T05:57:29;18.93;;;3.47;;
37529;SDS011;23374;52.758;6.872;2023-11-19T05:59:49;25.43;;;4.00;;
37529;SDS011;23374;52.758;6.872;2023-11-19T06:03:45;18.13;;;3.00;;
37529;SDS011;23374;52.758;6.872;2023-11-19T06:06:09;21.83;;;3.63;;
37529;SDS011;23374;52.758;6.872;2023-11-19T06:08:30;19.47;;;3.73;;
37529;SDS011;23374;52.758;6.872;2023-11-19T06:10:51;16.30;;;3.57;;
37529;SDS011;23374;52.758;6.872;2023-11-19T06:13:15;28.37;;;3.80;;
37529;SDS011;23374;52.758;6.872;2023-11-19T06:15:36;15.90;;;3.00;;
37529;SDS011;23374;52.758;6.872;2023-11-19T06:17:56;23.17;;;3.50;;
37529;SDS011;23374;52.758;6.872;2023-11-19T06:20:19;25.40;;;4.37;;
37529;SDS011;23374;52.758;6.872;2023-11-19T06:22:40;14.87;;;2.77;;
37529;SDS011;23374;52.758;6.872;2023-11-19T06:25:03;27.00;;;4.10;;
37529;SDS011;23374;52.758;6.872;2023-11-19T06:27:26;23.27;;;4.10;;
37529;SDS011;23374;52.758;6.872;2023-11-19T06:29:47;24.37;;;3.77;;
37529;SDS011;23374;52.758;6.872;2023-11-19T06:32:07;20.33;;;3.27;;
37529;SDS011;23374;52.758;6.872;2023-11-19T06:34:27;21.47;;;4.33;;
37529;SDS011;23374;52.758;6.872;2023-11-19T06:36:48;23.17;;;4.33;;
37529;SDS011;23374;52.758;6.872;2023-11-19T06:39:08;22.10;;;4.43;;
37529;SDS011;23374;52.758;6.872;2023-11-19T06:41:30;24.97;;;3.53;;
37529;SDS011;23374;52.758;6.872;2023-11-19T06:43:51;17.80;;;3.50;;
37529;SDS011;23374;52.758;6.872;2023-11-19T06:46:18;23.07;;;2.97;;
37529;SDS011;23374;52.758;6.872;2023-11-19T06:48:39;22.63;;;2.97;;
37529;SDS011;23374;52.758;6.872;2023-11-19T06:51:00;20.47;;;3.60;;
37529;SDS011;23374;52.758;6.872;2023-11-19T06:53:20;22.50;;;3.40;;
37529;SDS011;23374;52.758;6.872;2023-11-19T06:55:41;24.10;;;3.73;;
37529;SDS011;23374;52.758;6.872;2023-11-19T06:58:01;23.20;;;3.73;;
37529;SDS011;23374;52.758;6.872;2023-11-19T07:00:25;28.50;;;4.67;;
37529;SDS011;23374;52.758;6.872;2023-11-19T07:02:45;13.53;;;2.93;;
37529;SDS011;23374;52.758;6.872;2023-11-19T07:05:05;12.77;;;2.90;;
37529;SDS011;23374;52.758;6.872;2023-11-19T07:07:27;14.33;;;3.23;;
37529;SDS011;23374;52.758;6.872;2023-11-19T07:09:47;22.00;;;3.40;;
37529;SDS011;23374;52.758;6.872;2023-11-19T07:12:08;25.80;;;4.10;;
37529;SDS011;23374;52.758;6.872;2023-11-19T07:14:28;16.97;;;3.73;;
37529;SDS011;23374;52.758;6.872;2023-11-19T07:16:49;29.07;;;4.20;;
37529;SDS011;23374;52.758;6.872;2023-11-19T07:19:09;21.33;;;3.30;;
37529;SDS011;23374;52.758;6.872;2023-11-19T07:21:30;21.20;;;3.53;;
37529;SDS011;23374;52.758;6.872;2023-11-19T07:23:50;20.10;;;2.97;;
37529;SDS011;23374;52.758;6.872;2023-11-19T07:26:11;18.50;;;2.93;;
37529;SDS011;23374;52.758;6.872;2023-11-19T07:28:31;24.47;;;4.10;;
37529;SDS011;23374;52.758;6.872;2023-11-19T07:30:52;22.53;;;3.57;;
37529;SDS011;23374;52.758;6.872;2023-11-19T07:33:12;27.73;;;4.03;;
37529;SDS011;23374;52.758;6.872;2023-11-19T07:35:33;20.27;;;3.33;;
37529;SDS011;23374;52.758;6.872;2023-11-19T07:37:53;14.87;;;2.57;;
37529;SDS011;23374;52.758;6.872;2023-11-19T07:40:14;21.60;;;3.23;;
37529;SDS011;23374;52.758;6.872;2023-11-19T07:42:34;15.20;;;2.87;;
37529;SDS011;23374;52.758;6.872;2023-11-19T07:44:56;21.97;;;3.40;;
37529;SDS011;23374;52.758;6.872;2023-11-19T07:47:17;19.87;;;3.33;;
37529;SDS011;23374;52.758;6.872;2023-11-19T07:49:37;22.60;;;4.50;;
37529;SDS011;23374;52.758;6.872;2023-11-19T07:51:58;18.97;;;3.73;;
37529;SDS011;23374;52.758;6.872;2023-11-19T07:54:19;23.57;;;4.23;;
37529;SDS011;23374;52.758;6.872;2023-11-19T07:56:41;26.10;;;3.00;;
37529;SDS011;23374;52.758;6.872;2023-11-19T07:59:02;18.77;;;3.10;;
37529;SDS011;23374;52.758;6.872;2023-11-19T08:01:23;23.27;;;3.17;;
37529;SDS011;23374;52.758;6.872;2023-11-19T08:03:43;24.43;;;3.73;;
37529;SDS011;23374;52.758;6.872;2023-11-19T08:06:04;17.93;;;3.37;;
37529;SDS011;23374;52.758;6.872;2023-11-19T08:08:24;22.37;;;2.87;;
37529;SDS011;23374;52.758;6.872;2023-11-19T08:10:45;19.93;;;3.73;;
37529;SDS011;23374;52.758;6.872;2023-11-19T08:13:06;21.63;;;3.20;;
37529;SDS011;23374;52.758;6.872;2023-11-19T08:15:27;15.77;;;3.27;;
37529;SDS011;23374;52.758;6.872;2023-11-19T08:17:47;14.67;;;3.17;;
37529;SDS011;23374;52.758;6.872;2023-11-19T08:20:08;23.40;;;3.60;;
37529;SDS011;23374;52.758;6.872;2023-11-19T08:22:32;20.13;;;3.80;;
37529;SDS011;23374;52.758;6.872;2023-11-19T08:24:52;19.10;;;3.10;;
37529;SDS011;23374;52.758;6.872;2023-11-19T08:27:13;20.53;;;3.27;;
37529;SDS011;23374;52.758;6.872;2023-11-19T08:29:33;19.17;;;3.57;;
37529;SDS011;23374;52.758;6.872;2023-11-19T08:31:54;18.23;;;2.53;;
37529;SDS011;23374;52.758;6.872;2023-11-19T08:34:14;28.43;;;4.17;;
37529;SDS011;23374;52.758;6.872;2023-11-19T08:36:35;26.33;;;3.77;;
37529;SDS011;23374;52.758;6.872;2023-11-19T08:38:55;22.00;;;3.60;;
37529;SDS011;23374;52.758;6.872;2023-11-19T08:41:16;20.93;;;3.10;;
37529;SDS011;23374;52.758;6.872;2023-11-19T08:43:37;17.40;;;3.17;;
37529;SDS011;23374;52.758;6.872;2023-11-19T08:45:58;22.10;;;4.43;;
37529;SDS011;23374;52.758;6.872;2023-11-19T08:48:18;18.87;;;2.50;;
37529;SDS011;23374;52.758;6.872;2023-11-19T08:50:39;27.50;;;3.20;;
37529;SDS011;23374;52.758;6.872;2023-11-19T08:52:59;16.80;;;3.33;;
37529;SDS011;23374;52.758;6.872;2023-11-19T08:55:20;22.33;;;3.57;;
37529;SDS011;23374;52.758;6.872;2023-11-19T08:57:40;22.37;;;3.30;;
37529;SDS011;23374;52.758;6.872;2023-11-19T09:00:02;13.43;;;3.17;;
37529;SDS011;23374;52.758;6.872;2023-11-19T09:02:27;15.73;;;2.77;;
37529;SDS011;23374;52.758;6.872;2023-11-19T09:04:48;22.80;;;4.03;;
37529;SDS011;23374;52.758;6.872;2023-11-19T09:07:08;17.07;;;3.33;;
37529;SDS011;23374;52.758;6.872;2023-11-19T09:09:32;20.37;;;3.20;;
37529;SDS011;23374;52.758;6.872;2023-11-19T09:11:55;33.90;;;4.17;;
37529;SDS011;23374;52.758;6.872;2023-11-19T09:14:16;18.67;;;3.10;;
37529;SDS011;23374;52.758;6.872;2023-11-19T09:16:38;18.20;;;3.73;;
37529;SDS011;23374;52.758;6.872;2023-11-19T09:18:58;23.63;;;3.47;;
37529;SDS011;23374;52.758;6.872;2023-11-19T09:21:19;23.53;;;3.50;;
37529;SDS011;23374;52.758;6.872;2023-11-19T09:23:40;31.03;;;3.57;;
37529;SDS011;23374;52.758;6.872;2023-11-19T09:26:01;18.13;;;3.43;;
37529;SDS011;23374;52.758;6.872;2023-11-19T09:28:21;23.33;;;3.77;;
37529;SDS011;23374;52.758;6.872;2023-11-19T09:30:41;26.00;;;3.43;;
37529;SDS011;23374;52.758;6.872;2023-11-19T09:33:02;26.20;;;4.07;;
37529;SDS011;23374;52.758;6.872;2023-11-19T09:35:22;19.90;;;3.60;;
37529;SDS011;23374;52.758;6.872;2023-11-19T09:37:43;20.30;;;3.17;;
37529;SDS011;23374;52.758;6.872;2023-11-19T09:40:04;20.80;;;3.70;;
37529;SDS011;23374;52.758;6.872;2023-11-19T09:42:29;26.23;;;4.00;;
37529;SDS011;23374;52.758;6.872;2023-11-19T09:44:58;33.93;;;4.30;;
37529;SDS011;23374;52.758;6.872;2023-11-19T09:47:20;19.67;;;3.50;;
37529;SDS011;23374;52.758;6.872;2023-11-19T09:49:41;24.30;;;3.63;;
37529;SDS011;23374;52.758;6.872;2023-11-19T09:52:01;23.80;;;3.70;;
37529;SDS011;23374;52.758;6.872;2023-11-19T09:54:22;23.03;;;3.97;;
37529;SDS011;23374;52.758;6.872;2023-11-19T09:56:43;31.43;;;4.20;;
37529;SDS011;23374;52.758;6.872;2023-11-19T09:59:03;25.87;;;3.77;;
37529;SDS011;23374;52.758;6.872;2023-11-19T10:01:25;27.40;;;4.50;;
37529;SDS011;23374;52.758;6.872;2023-11-19T10:03:46;23.97;;;3.70;;
37529;SDS011;23374;52.758;6.872;2023-11-19T10:06:07;33.50;;;3.70;;
37529;SDS011;23374;52.758;6.872;2023-11-19T10:08:28;26.13;;;3.60;;
37529;SDS011;23374;52.758;6.872;2023-11-19T10:10:49;24.10;;;4.27;;
37529;SDS011;23374;52.758;6.872;2023-11-19T10:13:10;20.67;;;4.00;;
37529;SDS011;23374;52.758;6.872;2023-11-19T10:15:35;30.50;;;4.00;;
37529;SDS011;23374;52.758;6.872;2023-11-19T10:17:57;28.63;;;3.60;;
37529;SDS011;23374;52.758;6.872;2023-11-19T10:20:17;30.77;;;4.20;;
37529;SDS011;23374;52.758;6.872;2023-11-19T10:22:38;25.10;;;4.00;;
37529;SDS011;23374;52.758;6.872;2023-11-19T10:24:58;15.97;;;3.40;;
37529;SDS011;23374;52.758;6.872;2023-11-19T10:27:23;22.50;;;4.30;;
37529;SDS011;23374;52.758;6.872;2023-11-19T10:29:46;21.37;;;2.63;;
37529;SDS011;23374;52.758;6.872;2023-11-19T10:32:09;23.80;;;3.67;;
37529;SDS011;23374;52.758;6.872;2023-11-19T10:34:30;21.80;;;3.53;;
37529;SDS011;23374;52.758;6.872;2023-11-19T10:36:50;23.27;;;3.50;;
37529;SDS011;23374;52.758;6.872;2023-11-19T10:39:12;13.87;;;2.97;;
37529;SDS011;23374;52.758;6.872;2023-11-19T10:41:33;25.03;;;3.50;;
37529;SDS011;23374;52.758;6.872;2023-11-19T10:43:55;26.57;;;4.10;;
37529;SDS011;23374;52.758;6.872;2023-11-19T10:46:18;23.07;;;3.57;;
37529;SDS011;23374;52.758;6.872;2023-11-19T10:48:44;23.63;;;3.10;;
37529;SDS011;23374;52.758;6.872;2023-11-19T10:51:07;12.87;;;3.33;;
37529;SDS011;23374;52.758;6.872;2023-11-19T10:53:28;30.10;;;4.53;;
37529;SDS011;23374;52.758;6.872;2023-11-19T10:55:49;20.77;;;3.63;;
37529;SDS011;23374;52.758;6.872;2023-11-19T10:58:11;19.03;;;3.07;;
37529;SDS011;23374;52.758;6.872;2023-11-19T11:00:51;20.07;;;4.00;;
37529;SDS011;23374;52.758;6.872;2023-11-19T11:03:19;23.53;;;3.60;;
37529;SDS011;23374;52.758;6.872;2023-11-19T11:05:41;16.57;;;3.00;;
37529;SDS011;23374;52.758;6.872;2023-11-19T11:08:06;20.53;;;3.00;;
37529;SDS011;23374;52.758;6.872;2023-11-19T11:10:27;25.70;;;3.87;;
37529;SDS011;23374;52.758;6.872;2023-11-19T11:12:52;24.03;;;3.97;;
37529;SDS011;23374;52.758;6.872;2023-11-19T11:15:19;25.47;;;3.00;;
37529;SDS011;23374;52.758;6.872;2023-11-19T11:17:43;19.87;;;3.53;;
37529;SDS011;23374;52.758;6.872;2023-11-19T11:20:07;21.97;;;4.03;;
37529;SDS011;23374;52.758;6.872;2023-11-19T11:22:29;24.00;;;2.63;;
37529;SDS011;23374;52.758;6.872;2023-11-19T11:25:19;18.67;;;3.63;;
37529;SDS011;23374;52.758;6.872;2023-11-19T11:28:46;26.90;;;3.50;;
37529;SDS011;23374;52.758;6.872;2023-11-19T11:38:28;22.20;;;3.80;;
37529;SDS011;23374;52.758;6.872;2023-11-19T11:41:23;19.77;;;2.53;;
37529;SDS011;23374;52.758;6.872;2023-11-19T11:43:49;13.50;;;2.57;;
37529;SDS011;23374;52.758;6.872;2023-11-19T11:46:53;27.13;;;3.83;;
37529;SDS011;23374;52.758;6.872;2023-11-19T11:49:24;15.57;;;3.07;;
37529;SDS011;23374;52.758;6.872;2023-11-19T11:52:07;16.33;;;3.53;;
37529;SDS011;23374;52.758;6.872;2023-11-19T11:54:36;17.77;;;3.23;;
37529;SDS011;23374;52.758;6.872;2023-11-19T11:57:10;15.33;;;2.57;;
37529;SDS011;23374;52.758;6.872;2023-11-19T12:00:05;14.73;;;2.80;;
37529;SDS011;23374;52.758;6.872;2023-11-19T12:02:41;12.13;;;2.30;;
37529;SDS011;23374;52.758;6.872;2023-11-19T12:05:06;20.87;;;2.80;;
37529;SDS011;23374;52.758;6.872;2023-11-19T12:07:30;17.67;;;3.07;;
37529;SDS011;23374;52.758;6.872;2023-11-19T12:10:13;17.07;;;2.67;;
37529;SDS011;23374;52.758;6.872;2023-11-19T12:12:36;18.63;;;2.93;;
37529;SDS011;23374;52.758;6.872;2023-11-19T12:15:03;17.97;;;2.77;;
37529;SDS011;23374;52.758;6.872;2023-11-19T12:17:41;15.90;;;2.93;;
37529;SDS011;23374;52.758;6.872;2023-11-19T12:20:06;13.70;;;2.20;;
37529;SDS011;23374;52.758;6.872;2023-11-19T12:22:30;18.63;;;2.60;;
37529;SDS011;23374;52.758;6.872;2023-11-19T12:24:53;25.67;;;3.27;;
37529;SDS011;23374;52.758;6.872;2023-11-19T12:27:14;19.37;;;3.00;;
37529;SDS011;23374;52.758;6.872;2023-11-19T12:29:42;17.03;;;2.83;;
37529;SDS011;23374;52.758;6.872;2023-11-19T12:32:04;27.80;;;3.47;;
37529;SDS011;23374;52.758;6.872;2023-11-19T12:34:30;23.47;;;3.70;;
37529;SDS011;23374;52.758;6.872;2023-11-19T12:36:52;26.83;;;3.57;;
37529;SDS011;23374;52.758;6.872;2023-11-19T12:39:12;20.57;;;3.33;;
37529;SDS011;23374;52.758;6.872;2023-11-19T12:41:48;18.50;;;3.23;;
37529;SDS011;23374;52.758;6.872;2023-11-19T12:44:10;24.80;;;3.03;;
37529;SDS011;23374;52.758;6.872;2023-11-19T12:46:31;31.27;;;4.20;;
37529;SDS011;23374;52.758;6.872;2023-11-19T12:48:52;25.63;;;3.43;;
37529;SDS011;23374;52.758;6.872;2023-11-19T12:51:13;27.57;;;4.20;;
37529;SDS011;23374;52.758;6.872;2023-11-19T12:53:47;23.03;;;3.60;;
37529;SDS011;23374;52.758;6.872;2023-11-19T12:56:14;16.93;;;2.80;;
37529;SDS011;23374;52.758;6.872;2023-11-19T12:58:35;18.20;;;3.07;;
37529;SDS011;23374;52.758;6.872;2023-11-19T13:01:02;25.03;;;3.40;;
37529;SDS011;23374;52.758;6.872;2023-11-19T13:03:35;14.97;;;3.20;;
37529;SDS011;23374;52.758;6.872;2023-11-19T13:06:10;16.40;;;3.13;;
37529;SDS011;23374;52.758;6.872;2023-11-19T13:08:36;20.37;;;3.30;;
37529;SDS011;23374;52.758;6.872;2023-11-19T13:11:00;15.63;;;2.67;;
37529;SDS011;23374;52.758;6.872;2023-11-19T13:13:21;17.13;;;2.93;;
37529;SDS011;23374;52.758;6.872;2023-11-19T13:15:41;22.67;;;3.00;;
37529;SDS011;23374;52.758;6.872;2023-11-19T13:18:05;13.13;;;2.80;;
37529;SDS011;23374;52.758;6.872;2023-11-19T13:20:26;19.20;;;2.97;;
37529;SDS011;23374;52.758;6.872;2023-11-19T13:23:01;19.00;;;2.67;;
37529;SDS011;23374;52.758;6.872;2023-11-19T13:25:22;21.93;;;2.83;;
37529;SDS011;23374;52.758;6.872;2023-11-19T13:27:45;18.07;;;2.67;;
37529;SDS011;23374;52.758;6.872;2023-11-19T13:30:07;15.50;;;2.60;;
37529;SDS011;23374;52.758;6.872;2023-11-19T13:32:28;22.57;;;3.40;;
37529;SDS011;23374;52.758;6.872;2023-11-19T13:34:48;25.70;;;2.70;;
37529;SDS011;23374;52.758;6.872;2023-11-19T13:37:08;17.97;;;2.57;;
37529;SDS011;23374;52.758;6.872;2023-11-19T13:39:28;21.10;;;3.30;;
37529;SDS011;23374;52.758;6.872;2023-11-19T13:41:49;24.80;;;3.07;;
37529;SDS011;23374;52.758;6.872;2023-11-19T13:44:10;15.50;;;2.93;;
37529;SDS011;23374;52.758;6.872;2023-11-19T13:46:30;20.20;;;3.23;;
37529;SDS011;23374;52.758;6.872;2023-11-19T13:48:50;20.57;;;2.70;;
37529;SDS011;23374;52.758;6.872;2023-11-19T13:51:11;16.97;;;2.80;;
37529;SDS011;23374;52.758;6.872;2023-11-19T13:53:32;19.13;;;3.00;;
37529;SDS011;23374;52.758;6.872;2023-11-19T13:55:52;20.40;;;3.40;;
37529;SDS011;23374;52.758;6.872;2023-11-19T13:58:13;15.03;;;2.80;;
37529;SDS011;23374;52.758;6.872;2023-11-19T14:00:33;23.33;;;2.87;;
37529;SDS011;23374;52.758;6.872;2023-11-19T14:02:53;19.47;;;3.10;;
37529;SDS011;23374;52.758;6.872;2023-11-19T14:05:14;17.07;;;2.90;;
37529;SDS011;23374;52.758;6.872;2023-11-19T14:07:37;22.70;;;3.17;;
37529;SDS011;23374;52.758;6.872;2023-11-19T14:09:58;22.93;;;2.83;;
37529;SDS011;23374;52.758;6.872;2023-11-19T14:12:20;19.97;;;2.80;;
37529;SDS011;23374;52.758;6.872;2023-11-19T14:14:41;24.30;;;3.00;;